Time;durP1;ratioP1;P1;durP2;ratioP2;P2;SDS_P1;SDS_P2;PMS_P1;PMS_P2;Temp;Humidity;BMP_temperature;BMP_pressure;BME280_temperature;BME280_humidity;BME280_pressure;Samples;Min_cycle;Max_cycle;Signal;HPM_P1;HPM_P2
2022/04/20 00:02:07;;;;;;;17.98;13.50;;;;;;;;;;5091266;28;20035;-67
2022/04/20 00:04:33;;;;;;;30.63;19.52;;;;;;;;;;5094061;28;20466;-68
2022/04/20 00:06:58;;;;;;;30.48;18.73;;;;;;;;;;5097081;28;20028;-68
2022/04/20 00:09:23;;;;;;;30.95;19.50;;;;;;;;;;5096857;28;20069;-68
2022/04/20 00:11:49;;;;;;;33.72;19.92;;;;;;;;;;5093795;28;20051;-70
2022/04/20 00:14:14;;;;;;;26.77;15.45;;;;;;;;;;5089776;28;20098;-69
2022/04/20 00:16:39;;;;;;;52.03;23.52;;;;;;;;;;5074039;28;20450;-76
2022/04/20 00:19:05;;;;;;;72.88;30.95;;;;;;;;;;5088465;28;20450;-69
2022/04/20 00:21:30;;;;;;;57.72;26.10;;;;;;;;;;5096274;28;20113;-67
2022/04/20 00:23:55;;;;;;;49.88;24.67;;;;;;;;;;5098588;28;20027;-68
2022/04/20 00:26:21;;;;;;;48.67;24.63;;;;;;;;;;5098356;28;20044;-66
2022/04/20 00:28:46;;;;;;;47.75;23.67;;;;;;;;;;5093946;28;20023;-68
2022/04/20 00:31:11;;;;;;;41.53;21.15;;;;;;;;;;5094786;28;20023;-67
2022/04/20 00:33:37;;;;;;;32.85;17.70;;;;;;;;;;5090827;28;20360;-71
2022/04/20 00:36:03;;;;;;;33.60;17.10;;;;;;;;;;5086240;28;20102;-68
2022/04/20 00:38:29;;;;;;;28.17;17.17;;;;;;;;;;5085138;28;20028;-69
2022/04/20 00:40:55;;;;;;;28.30;17.05;;;;;;;;;;5095811;28;20346;-68
2022/04/20 00:43:21;;;;;;;27.73;17.15;;;;;;;;;;5096554;28;20400;-67
2022/04/20 00:45:47;;;;;;;23.55;15.68;;;;;;;;;;5101752;28;20015;-68
2022/04/20 00:48:12;;;;;;;24.60;15.20;;;;;;;;;;5101190;28;20358;-70
2022/04/20 00:50:42;;;;;;;21.63;14.70;;;;;;;;;;5099349;28;20019;-70
2022/04/20 00:53:07;;;;;;;24.90;15.25;;;;;;;;;;5098650;28;20075;-67
2022/04/20 00:55:32;;;;;;;23.25;14.00;;;;;;;;;;5101163;28;20027;-68
2022/04/20 00:57:57;;;;;;;18.02;13.50;;;;;;;;;;5097490;28;20077;-67
2022/04/20 01:00:25;;;;;;;16.20;12.05;;;;;;;;;;5093790;28;20031;-68
2022/04/20 01:02:50;;;;;;;16.10;11.18;;;;;;;;;;5101816;28;20031;-65
2022/04/20 01:05:16;;;;;;;15.32;11.48;;;;;;;;;;5092532;28;20489;-70
2022/04/20 01:07:41;;;;;;;17.17;10.07;;;;;;;;;;5098931;28;20443;-67
2022/04/20 01:10:07;;;;;;;15.60;10.68;;;;;;;;;;5101423;28;20063;-67
2022/04/20 01:12:32;;;;;;;16.02;11.80;;;;;;;;;;5101955;28;20016;-67
2022/04/20 01:14:57;;;;;;;28.63;16.15;;;;;;;;;;5098509;28;20026;-73
2022/04/20 01:17:23;;;;;;;24.05;16.70;;;;;;;;;;5092267;28;20034;-69
2022/04/20 01:19:48;;;;;;;25.33;17.55;;;;;;;;;;5098684;28;20023;-72
2022/04/20 01:22:14;;;;;;;25.83;17.13;;;;;;;;;;5099240;28;20510;-69
2022/04/20 01:24:39;;;;;;;26.20;15.25;;;;;;;;;;5099002;28;20510;-67
2022/04/20 01:27:05;;;;;;;25.17;16.88;;;;;;;;;;5099780;28;20404;-69
2022/04/20 01:29:31;;;;;;;21.55;15.40;;;;;;;;;;5099399;28;20115;-68
2022/04/20 01:31:57;;;;;;;23.63;14.90;;;;;;;;;;5099115;28;20020;-69
2022/04/20 01:34:22;;;;;;;23.58;15.88;;;;;;;;;;5098888;28;20026;-67
2022/04/20 01:36:48;;;;;;;28.55;18.63;;;;;;;;;;5099164;28;20096;-72
2022/04/20 01:39:13;;;;;;;23.60;16.40;;;;;;;;;;5100346;28;20015;-66
2022/04/20 01:41:39;;;;;;;25.30;16.73;;;;;;;;;;5098259;28;21201;-67
2022/04/20 01:44:04;;;;;;;29.92;20.20;;;;;;;;;;5099622;28;20054;-66
2022/04/20 01:46:29;;;;;;;32.10;21.42;;;;;;;;;;5098569;28;20023;-69
2022/04/20 01:48:55;;;;;;;34.95;24.35;;;;;;;;;;5099173;28;20106;-71
2022/04/20 01:54:04;;;;;;;31.77;20.17;;;;;;;;;;5088778;28;20077;-67
2022/04/20 01:56:29;;;;;;;32.28;20.52;;;;;;;;;;5098712;28;20032;-72
2022/04/20 01:58:55;;;;;;;29.67;20.08;;;;;;;;;;5098337;28;20027;-69
2022/04/20 02:04:06;;;;;;;40.22;23.02;;;;;;;;;;5096988;28;20074;-68
2022/04/20 02:06:31;;;;;;;39.92;24.77;;;;;;;;;;5098829;28;20031;-68
2022/04/20 02:08:57;;;;;;;47.83;25.88;;;;;;;;;;5063928;28;20527;-70
2022/04/20 02:11:22;;;;;;;30.77;20.20;;;;;;;;;;5098737;28;20488;-67
2022/04/20 02:13:47;;;;;;;29.50;19.80;;;;;;;;;;5098266;28;20041;-73
2022/04/20 02:16:13;;;;;;;29.95;19.63;;;;;;;;;;5090711;28;20335;-71
2022/04/20 02:18:38;;;;;;;31.15;18.73;;;;;;;;;;5097573;28;20077;-70
2022/04/20 02:21:03;;;;;;;28.45;17.77;;;;;;;;;;5100000;28;20036;-71
2022/04/20 02:23:29;;;;;;;31.00;17.42;;;;;;;;;;5099533;28;20517;-70
2022/04/20 02:25:54;;;;;;;26.85;18.13;;;;;;;;;;5079835;28;20039;-70
2022/04/20 02:28:19;;;;;;;25.88;17.25;;;;;;;;;;5099541;28;20036;-69
2022/04/20 02:30:45;;;;;;;26.80;18.17;;;;;;;;;;5097656;28;20063;-69
2022/04/20 02:33:10;;;;;;;24.20;16.77;;;;;;;;;;5097809;28;20509;-68
2022/04/20 02:35:36;;;;;;;28.80;18.38;;;;;;;;;;5096958;28;20092;-69
2022/04/20 02:38:01;;;;;;;27.85;18.65;;;;;;;;;;5090042;28;20084;-68
2022/04/20 02:40:27;;;;;;;28.02;17.17;;;;;;;;;;5094757;28;20028;-71
2022/04/20 02:42:52;;;;;;;26.77;18.35;;;;;;;;;;5093977;28;20029;-68
2022/04/20 02:45:19;;;;;;;26.77;18.20;;;;;;;;;;5097976;28;20027;-72
2022/04/20 02:47:44;;;;;;;24.15;17.02;;;;;;;;;;5097211;28;20178;-69
2022/04/20 02:50:10;;;;;;;24.08;17.15;;;;;;;;;;5078189;28;20762;-67
2022/04/20 02:52:35;;;;;;;22.20;15.75;;;;;;;;;;5098477;28;20024;-69
2022/04/20 02:55:00;;;;;;;23.48;14.68;;;;;;;;;;5097035;28;20030;-67
2022/04/20 02:57:26;;;;;;;20.73;14.73;;;;;;;;;;5089928;28;20032;-73
2022/04/20 02:59:51;;;;;;;21.27;14.70;;;;;;;;;;5098293;28;20024;-69
2022/04/20 03:02:17;;;;;;;22.60;14.55;;;;;;;;;;5098395;28;20966;-72
2022/04/20 03:04:42;;;;;;;21.98;15.90;;;;;;;;;;5097840;28;20043;-68
2022/04/20 03:07:07;;;;;;;25.30;17.90;;;;;;;;;;5097043;28;20042;-68
2022/04/20 03:09:33;;;;;;;28.98;19.88;;;;;;;;;;5097035;28;20019;-65
2022/04/20 03:11:58;;;;;;;26.55;18.73;;;;;;;;;;5096859;28;20112;-65
2022/04/20 03:14:23;;;;;;;24.95;17.15;;;;;;;;;;5098700;28;20057;-70
2022/04/20 03:16:49;;;;;;;24.15;16.00;;;;;;;;;;5098826;28;20032;-68
2022/04/20 03:19:14;;;;;;;22.98;16.00;;;;;;;;;;5098049;28;20036;-69
2022/04/20 03:21:40;;;;;;;26.63;18.63;;;;;;;;;;5095122;28;20027;-71
2022/04/20 03:24:05;;;;;;;24.73;16.88;;;;;;;;;;5088119;28;20080;-67
2022/04/20 03:26:30;;;;;;;113.90;60.92;;;;;;;;;;5088406;28;20331;-73
2022/04/20 03:28:56;;;;;;;106.68;55.88;;;;;;;;;;5097271;28;20131;-71
2022/04/20 03:31:21;;;;;;;279.48;109.82;;;;;;;;;;5079693;28;20080;-68
2022/04/20 03:33:46;;;;;;;131.07;57.35;;;;;;;;;;5097354;28;20036;-69
2022/04/20 03:36:12;;;;;;;58.97;32.15;;;;;;;;;;5087211;28;20023;-67
2022/04/20 03:38:37;;;;;;;54.35;29.08;;;;;;;;;;5092612;28;20027;-69
2022/04/20 03:41:05;;;;;;;178.50;77.78;;;;;;;;;;5090704;28;20373;-69
2022/04/20 03:43:31;;;;;;;186.30;77.57;;;;;;;;;;5084927;28;20028;-73
2022/04/20 03:45:56;;;;;;;213.02;107.88;;;;;;;;;;5087927;28;20030;-71
2022/04/20 03:48:22;;;;;;;78.45;46.22;;;;;;;;;;5086454;28;20441;-67
2022/04/20 03:50:48;;;;;;;72.00;47.40;;;;;;;;;;5085323;28;20382;-68
2022/04/20 03:53:13;;;;;;;56.83;35.08;;;;;;;;;;5086736;28;20357;-66
2022/04/20 03:55:38;;;;;;;49.50;35.70;;;;;;;;;;5085739;28;20027;-68
2022/04/20 03:58:04;;;;;;;38.00;25.85;;;;;;;;;;5087279;28;20027;-72
2022/04/20 04:00:31;;;;;;;28.33;20.08;;;;;;;;;;5087043;28;20026;-68
2022/04/20 04:02:56;;;;;;;23.50;16.73;;;;;;;;;;5086484;28;20043;-68
2022/04/20 04:05:21;;;;;;;23.88;16.40;;;;;;;;;;5089019;28;20090;-75
2022/04/20 04:07:47;;;;;;;22.90;15.73;;;;;;;;;;5087653;28;20063;-69
2022/04/20 04:10:12;;;;;;;20.58;14.55;;;;;;;;;;5095828;28;20070;-69
2022/04/20 04:12:38;;;;;;;23.35;16.58;;;;;;;;;;5096118;28;20048;-69
2022/04/20 04:15:04;;;;;;;29.17;17.85;;;;;;;;;;5097763;28;20012;-68
2022/04/20 04:17:29;;;;;;;21.63;15.25;;;;;;;;;;5097545;28;20034;-74
2022/04/20 04:19:54;;;;;;;274.52;141.40;;;;;;;;;;5092187;28;20024;-70
2022/04/20 04:22:21;;;;;;;75.35;39.33;;;;;;;;;;5091704;28;20028;-74
2022/04/20 04:24:46;;;;;;;40.22;25.23;;;;;;;;;;5098730;28;20107;-69
2022/04/20 04:27:12;;;;;;;29.90;20.65;;;;;;;;;;5093404;28;20046;-69
2022/04/20 04:29:38;;;;;;;27.65;20.00;;;;;;;;;;5092784;28;20708;-73
2022/04/20 04:32:03;;;;;;;25.75;19.52;;;;;;;;;;5095171;28;20080;-69
2022/04/20 04:34:29;;;;;;;26.33;19.98;;;;;;;;;;5091686;28;20425;-70
2022/04/20 04:36:55;;;;;;;24.38;18.80;;;;;;;;;;5100122;28;20028;-71
2022/04/20 04:39:23;;;;;;;25.25;17.70;;;;;;;;;;5102145;28;20028;-67
2022/04/20 04:41:49;;;;;;;23.65;17.40;;;;;;;;;;5098643;28;20027;-68
2022/04/20 04:44:23;;;;;;;24.35;16.98;;;;;;;;;;5099461;28;20032;-72
2022/04/20 04:49:33;;;;;;;70.50;43.50;;;;;;;;;;5098319;28;20160;-68
2022/04/20 04:51:59;;;;;;;46.60;27.27;;;;;;;;;;5092485;28;20107;-67
2022/04/20 04:54:25;;;;;;;38.28;25.88;;;;;;;;;;5093621;28;20015;-66
2022/04/20 04:56:50;;;;;;;94.57;61.92;;;;;;;;;;5099593;28;20106;-69
2022/04/20 04:59:16;;;;;;;76.50;47.47;;;;;;;;;;5105021;28;20102;-68
2022/04/20 05:01:42;;;;;;;51.83;31.42;;;;;;;;;;5105913;28;20106;-70
2022/04/20 05:04:07;;;;;;;53.00;33.45;;;;;;;;;;5099412;28;20055;-70
2022/04/20 05:06:32;;;;;;;112.35;58.63;;;;;;;;;;5096293;28;20374;-66
2022/04/20 05:08:58;;;;;;;64.40;39.80;;;;;;;;;;5090261;28;20153;-69
2022/04/20 05:11:23;;;;;;;37.97;24.73;;;;;;;;;;5089930;28;20106;-68
2022/04/20 05:13:48;;;;;;;52.63;35.15;;;;;;;;;;5089329;28;20032;-71
2022/04/20 05:16:14;;;;;;;43.95;30.55;;;;;;;;;;5101292;28;20028;-69
2022/04/20 05:18:39;;;;;;;75.38;44.92;;;;;;;;;;5101689;28;20381;-70
2022/04/20 05:21:04;;;;;;;46.78;29.77;;;;;;;;;;5100626;28;20047;-68
2022/04/20 05:23:30;;;;;;;41.88;27.02;;;;;;;;;;5101170;28;20456;-68
2022/04/20 05:25:56;;;;;;;48.65;30.38;;;;;;;;;;5098411;28;20027;-68
2022/04/20 05:28:21;;;;;;;49.03;30.45;;;;;;;;;;5094694;28;20059;-78
2022/04/20 05:30:47;;;;;;;52.88;33.85;;;;;;;;;;5089144;28;20054;-72
2022/04/20 05:33:12;;;;;;;50.90;32.83;;;;;;;;;;5088168;28;20050;-71
2022/04/20 05:35:38;;;;;;;45.92;29.73;;;;;;;;;;5095724;28;20027;-71
2022/04/20 05:43:31;;;;;;;43.80;29.95;;;;;;;;;;5100602;28;20061;-67
2022/04/20 05:45:56;;;;;;;33.33;22.83;;;;;;;;;;5093319;28;20486;-67
2022/04/20 05:48:22;;;;;;;33.92;22.27;;;;;;;;;;5089327;28;20104;-69
2022/04/20 05:50:47;;;;;;;36.05;25.48;;;;;;;;;;5088101;28;20035;-72
2022/04/20 05:53:12;;;;;;;57.78;34.88;;;;;;;;;;5094668;28;20453;-66
2022/04/20 05:55:38;;;;;;;175.23;86.03;;;;;;;;;;5100509;28;20426;-69
2022/04/20 05:58:03;;;;;;;85.00;45.03;;;;;;;;;;5098277;28;20036;-67
2022/04/20 06:00:29;;;;;;;59.22;33.88;;;;;;;;;;5099637;28;20030;-68
2022/04/20 06:02:55;;;;;;;62.53;40.58;;;;;;;;;;5097491;28;20023;-68
2022/04/20 06:05:21;;;;;;;47.35;32.80;;;;;;;;;;5080473;28;20351;-66
2022/04/20 06:07:46;;;;;;;40.63;28.25;;;;;;;;;;5078684;28;20093;-66
2022/04/20 06:10:12;;;;;;;74.80;41.03;;;;;;;;;;5099829;28;20020;-72
2022/04/20 06:12:37;;;;;;;57.35;35.17;;;;;;;;;;5098341;28;20116;-69
2022/04/20 06:15:03;;;;;;;61.92;37.33;;;;;;;;;;5096018;28;20039;-67
2022/04/20 06:17:28;;;;;;;68.57;39.80;;;;;;;;;;5097511;28;20039;-72
2022/04/20 06:19:53;;;;;;;73.38;47.42;;;;;;;;;;5098329;28;20119;-65
2022/04/20 06:22:19;;;;;;;67.25;45.00;;;;;;;;;;5098905;28;20028;-65
2022/04/20 06:24:44;;;;;;;70.70;47.20;;;;;;;;;;5096322;28;20035;-66
2022/04/20 06:27:09;;;;;;;78.95;47.20;;;;;;;;;;5095305;28;20031;-67
2022/04/20 06:29:35;;;;;;;72.60;49.15;;;;;;;;;;5092864;28;20038;-69
2022/04/20 06:32:01;;;;;;;60.97;42.08;;;;;;;;;;5097920;28;20073;-67
2022/04/20 06:34:26;;;;;;;54.30;37.72;;;;;;;;;;5098566;28;20026;-67
2022/04/20 06:36:52;;;;;;;78.82;49.42;;;;;;;;;;5098422;28;20032;-68
2022/04/20 06:39:17;;;;;;;63.17;42.03;;;;;;;;;;5098300;28;20440;-67
2022/04/20 06:41:42;;;;;;;62.58;42.92;;;;;;;;;;5095984;28;20035;-68
2022/04/20 06:44:08;;;;;;;64.55;43.47;;;;;;;;;;5099503;28;20032;-68
2022/04/20 06:46:33;;;;;;;103.97;61.08;;;;;;;;;;5099318;28;20118;-66
2022/04/20 06:48:58;;;;;;;132.40;73.63;;;;;;;;;;5097842;28;20032;-67
2022/04/20 06:51:24;;;;;;;133.13;69.88;;;;;;;;;;5097428;28;20036;-66
2022/04/20 06:59:17;;;;;;;140.48;80.35;;;;;;;;;;5099298;28;20043;-69
2022/04/20 07:01:42;;;;;;;130.05;77.82;;;;;;;;;;5096826;28;20011;-69
2022/04/20 07:04:07;;;;;;;121.85;75.65;;;;;;;;;;5097870;28;20416;-69
2022/04/20 07:06:32;;;;;;;142.25;88.53;;;;;;;;;;5098941;28;20035;-68
2022/04/20 07:08:58;;;;;;;150.80;89.65;;;;;;;;;;5098369;28;20112;-68
2022/04/20 07:11:23;;;;;;;132.90;85.07;;;;;;;;;;5098917;28;20128;-68
2022/04/20 07:13:50;;;;;;;169.35;97.57;;;;;;;;;;5098306;28;20411;-69
2022/04/20 07:16:15;;;;;;;132.18;81.53;;;;;;;;;;5098322;28;22720;-68
2022/04/20 07:18:40;;;;;;;116.20;76.75;;;;;;;;;;5098044;28;20028;-69
2022/04/20 07:21:06;;;;;;;115.55;72.82;;;;;;;;;;5096328;28;20032;-68
2022/04/20 07:23:31;;;;;;;139.18;89.78;;;;;;;;;;5098450;28;23718;-71
2022/04/20 07:25:57;;;;;;;127.57;81.53;;;;;;;;;;5095490;28;20118;-72
2022/04/20 07:28:22;;;;;;;119.28;80.72;;;;;;;;;;5089768;28;20206;-71
2022/04/20 07:30:48;;;;;;;136.38;88.13;;;;;;;;;;5097894;28;20042;-68
2022/04/20 07:33:14;;;;;;;278.52;155.90;;;;;;;;;;5097887;28;20153;-72
2022/04/20 07:35:39;;;;;;;292.40;152.55;;;;;;;;;;5096736;28;20027;-68
2022/04/20 07:38:04;;;;;;;470.35;247.93;;;;;;;;;;5095868;28;20102;-68
2022/04/20 07:40:31;;;;;;;121.60;71.93;;;;;;;;;;5098815;28;20035;-66
2022/04/20 07:42:56;;;;;;;78.70;54.28;;;;;;;;;;5096273;28;20024;-67
2022/04/20 07:45:25;;;;;;;98.07;63.03;;;;;;;;;;5097799;28;20024;-68
2022/04/20 07:47:51;;;;;;;92.23;58.40;;;;;;;;;;5097557;28;20484;-67
2022/04/20 07:50:19;;;;;;;132.90;80.32;;;;;;;;;;5096564;28;20339;-70
2022/04/20 07:52:51;;;;;;;104.95;66.35;;;;;;;;;;5098532;28;20064;-67
2022/04/20 07:55:21;;;;;;;113.55;71.38;;;;;;;;;;5093308;28;20099;-69
2022/04/20 07:57:47;;;;;;;109.28;72.93;;;;;;;;;;5100600;28;20476;-68
2022/04/20 08:00:14;;;;;;;99.57;65.90;;;;;;;;;;5101812;28;20031;-67
2022/04/20 08:02:39;;;;;;;131.77;85.85;;;;;;;;;;5096511;28;20094;-70
2022/04/20 08:05:05;;;;;;;135.23;86.82;;;;;;;;;;5091671;28;20045;-68
2022/04/20 08:07:31;;;;;;;133.88;87.75;;;;;;;;;;5098523;28;20039;-73
2022/04/20 08:09:56;;;;;;;163.43;102.93;;;;;;;;;;5084946;28;20051;-71
2022/04/20 08:12:23;;;;;;;148.30;95.38;;;;;;;;;;5101982;28;20106;-70
2022/04/20 08:14:49;;;;;;;162.18;104.95;;;;;;;;;;5102236;28;20041;-68
2022/04/20 08:17:14;;;;;;;160.68;106.65;;;;;;;;;;5101150;28;20024;-69
2022/04/20 08:19:39;;;;;;;145.07;98.10;;;;;;;;;;5102264;28;20022;-68
2022/04/20 08:22:05;;;;;;;158.20;108.32;;;;;;;;;;5102154;28;20078;-70
2022/04/20 08:24:31;;;;;;;209.30;145.57;;;;;;;;;;5101784;28;20023;-68
2022/04/20 08:26:56;;;;;;;264.25;181.52;;;;;;;;;;5086015;28;20032;-72
2022/04/20 08:29:22;;;;;;;202.02;132.52;;;;;;;;;;5083190;28;20130;-67
2022/04/20 08:31:47;;;;;;;147.20;99.00;;;;;;;;;;5101029;28;20035;-72
2022/04/20 08:34:12;;;;;;;153.90;103.97;;;;;;;;;;5099965;28;20084;-68
2022/04/20 08:36:37;;;;;;;190.43;130.80;;;;;;;;;;5100630;28;20035;-68
2022/04/20 08:39:03;;;;;;;122.60;83.18;;;;;;;;;;5099668;28;20027;-70
2022/04/20 08:41:28;;;;;;;120.85;80.97;;;;;;;;;;5101528;28;20032;-71
2022/04/20 08:43:55;;;;;;;91.68;62.88;;;;;;;;;;5101428;28;20023;-69
2022/04/20 08:46:22;;;;;;;89.65;62.15;;;;;;;;;;5100919;28;20035;-72
2022/04/20 08:48:49;;;;;;;93.95;64.78;;;;;;;;;;5100711;28;20023;-68
2022/04/20 08:51:14;;;;;;;105.25;76.68;;;;;;;;;;5100458;28;20023;-71
2022/04/20 08:53:40;;;;;;;56.70;43.47;;;;;;;;;;5100289;28;20024;-71
2022/04/20 08:58:53;;;;;;;61.10;45.03;;;;;;;;;;5059557;28;20104;-68
2022/04/20 09:01:19;;;;;;;40.25;29.15;;;;;;;;;;5099673;28;20069;-68
2022/04/20 09:03:46;;;;;;;25.98;22.55;;;;;;;;;;5099289;28;20461;-69
2022/04/20 09:06:12;;;;;;;28.88;23.10;;;;;;;;;;5101426;28;20020;-71
2022/04/20 09:08:38;;;;;;;24.05;20.58;;;;;;;;;;5099275;28;20159;-67
2022/04/20 09:11:03;;;;;;;32.30;25.02;;;;;;;;;;5100665;28;20020;-72
2022/04/20 09:13:33;;;;;;;33.65;25.55;;;;;;;;;;5099776;28;20054;-70
2022/04/20 09:16:05;;;;;;;53.97;39.22;;;;;;;;;;5099370;28;20525;-71
2022/04/20 09:18:31;;;;;;;44.00;32.63;;;;;;;;;;5100293;28;20437;-68
2022/04/20 09:21:05;;;;;;;48.88;35.05;;;;;;;;;;5100498;28;20027;-69
2022/04/20 09:23:31;;;;;;;32.30;24.67;;;;;;;;;;5099246;28;20028;-67
2022/04/20 09:25:56;;;;;;;58.00;35.70;;;;;;;;;;5100367;28;20024;-69
2022/04/20 09:28:22;;;;;;;50.47;34.60;;;;;;;;;;5100163;28;20044;-70
2022/04/20 09:30:51;;;;;;;56.17;37.63;;;;;;;;;;5098795;28;20020;-70
2022/04/20 09:33:16;;;;;;;39.67;26.38;;;;;;;;;;5099080;28;20080;-67
2022/04/20 09:35:48;;;;;;;28.75;19.63;;;;;;;;;;5093076;28;20039;-68
2022/04/20 09:38:17;;;;;;;20.08;16.13;;;;;;;;;;5099461;28;20027;-68
2022/04/20 09:40:42;;;;;;;44.38;27.52;;;;;;;;;;5099656;28;20154;-67
2022/04/20 09:43:09;;;;;;;50.55;27.45;;;;;;;;;;5099676;28;20107;-73
2022/04/20 09:45:36;;;;;;;45.88;27.50;;;;;;;;;;5100694;28;20028;-68
2022/04/20 09:51:06;;;;;;;33.00;20.92;;;;;;;;;;5099697;28;20034;-68
2022/04/20 09:53:34;;;;;;;34.70;21.25;;;;;;;;;;5098997;28;20112;-68
2022/04/20 09:56:13;;;;;;;47.40;27.50;;;;;;;;;;5098122;28;20016;-69
2022/04/20 09:58:39;;;;;;;49.70;29.23;;;;;;;;;;5099045;28;20020;-70
2022/04/20 10:01:06;;;;;;;32.72;19.73;;;;;;;;;;5097414;28;20581;-72
2022/04/20 10:03:32;;;;;;;18.42;10.75;;;;;;;;;;5097216;28;20019;-67
2022/04/20 10:05:58;;;;;;;27.05;17.98;;;;;;;;;;5100212;28;20043;-68
2022/04/20 10:08:24;;;;;;;27.15;19.27;;;;;;;;;;5100086;28;20023;-72
2022/04/20 10:10:50;;;;;;;35.42;24.55;;;;;;;;;;5099723;28;20031;-71
2022/04/20 10:13:16;;;;;;;27.25;18.30;;;;;;;;;;5098421;28;20028;-68
2022/04/20 10:18:28;;;;;;;23.65;16.15;;;;;;;;;;5097142;28;20038;-68
2022/04/20 10:21:03;;;;;;;43.55;27.55;;;;;;;;;;5099739;28;20028;-68
2022/04/20 10:23:29;;;;;;;35.40;23.85;;;;;;;;;;5100613;28;20355;-70
2022/04/20 10:25:55;;;;;;;30.48;19.92;;;;;;;;;;5096835;28;20028;-69
2022/04/20 10:28:39;;;;;;;37.42;23.90;;;;;;;;;;5099221;28;20403;-69
2022/04/20 10:31:13;;;;;;;43.45;24.55;;;;;;;;;;5089643;28;20035;-70
2022/04/20 10:33:40;;;;;;;39.30;21.58;;;;;;;;;;5098052;28;20023;-72
2022/04/20 10:36:09;;;;;;;31.45;17.48;;;;;;;;;;5099077;28;20114;-73
2022/04/20 10:38:34;;;;;;;39.33;21.95;;;;;;;;;;5099579;28;20027;-70
2022/04/20 10:41:05;;;;;;;20.92;12.45;;;;;;;;;;5098970;28;20420;-73
2022/04/20 10:43:31;;;;;;;18.60;12.27;;;;;;;;;;5088642;28;20031;-69
2022/04/20 10:46:07;;;;;;;24.20;18.27;;;;;;;;;;5099900;28;20076;-70
2022/04/20 10:48:42;;;;;;;31.83;24.05;;;;;;;;;;5099262;28;20126;-73
2022/04/20 10:51:11;;;;;;;21.67;16.30;;;;;;;;;;5097152;28;20028;-68
2022/04/20 10:53:37;;;;;;;22.30;15.55;;;;;;;;;;5099342;28;20023;-68
2022/04/20 10:56:02;;;;;;;18.30;12.05;;;;;;;;;;5098371;28;20035;-68
2022/04/20 10:58:27;;;;;;;21.33;13.20;;;;;;;;;;5096686;28;20043;-67
2022/04/20 11:01:09;;;;;;;15.48;10.27;;;;;;;;;;5099322;28;20047;-67
2022/04/20 11:03:54;;;;;;;21.13;14.63;;;;;;;;;;5098792;28;20335;-74
2022/04/20 11:06:19;;;;;;;46.20;25.95;;;;;;;;;;5098655;28;20020;-68
2022/04/20 11:08:44;;;;;;;52.30;32.40;;;;;;;;;;5099559;28;20129;-68
2022/04/20 11:19:52;;;;;;;28.60;16.55;;;;;;;;;;5072179;28;20039;-68
2022/04/20 11:22:17;;;;;;;37.55;18.63;;;;;;;;;;5080790;28;20031;-69
2022/04/20 11:24:43;;;;;;;26.55;16.88;;;;;;;;;;5098364;28;20035;-70
2022/04/20 11:27:10;;;;;;;31.02;20.85;;;;;;;;;;5096538;28;20509;-68
2022/04/20 11:29:36;;;;;;;31.98;22.25;;;;;;;;;;5097078;28;20044;-68
2022/04/20 11:32:09;;;;;;;64.63;36.83;;;;;;;;;;5098117;28;20346;-69
2022/04/20 11:34:36;;;;;;;34.75;23.65;;;;;;;;;;5097618;28;20204;-69
2022/04/20 11:37:03;;;;;;;40.60;28.63;;;;;;;;;;5098338;28;20040;-68
2022/04/20 11:39:29;;;;;;;62.88;44.17;;;;;;;;;;5098989;28;20224;-68
2022/04/20 11:42:04;;;;;;;31.63;22.23;;;;;;;;;;5098654;28;20143;-73
2022/04/20 11:44:31;;;;;;;56.97;44.55;;;;;;;;;;5097349;28;20031;-68
2022/04/20 11:47:07;;;;;;;43.67;30.50;;;;;;;;;;5098038;28;20044;-76
2022/04/20 11:49:41;;;;;;;31.88;24.05;;;;;;;;;;5097621;28;20058;-69
2022/04/20 11:52:09;;;;;;;14.00;11.68;;;;;;;;;;5098081;28;20031;-70
2022/04/20 11:54:35;;;;;;;20.77;17.80;;;;;;;;;;5096662;28;20059;-68
2022/04/20 11:57:01;;;;;;;67.15;45.80;;;;;;;;;;5099339;28;21649;-68
2022/04/20 11:59:28;;;;;;;52.50;30.67;;;;;;;;;;5098837;28;20080;-70
2022/04/20 12:01:54;;;;;;;21.92;12.52;;;;;;;;;;5091215;28;20024;-68
2022/04/20 12:04:25;;;;;;;20.15;13.02;;;;;;;;;;5091884;28;20055;-68
2022/04/20 12:06:52;;;;;;;36.65;20.80;;;;;;;;;;5086469;28;20063;-69
2022/04/20 12:09:25;;;;;;;50.25;27.60;;;;;;;;;;5086763;28;20040;-66
2022/04/20 12:11:52;;;;;;;68.15;35.03;;;;;;;;;;5087835;28;20077;-69
2022/04/20 12:14:19;;;;;;;29.33;17.90;;;;;;;;;;5087756;28;20647;-72
2022/04/20 12:16:44;;;;;;;75.72;43.42;;;;;;;;;;5087844;28;20024;-64
2022/04/20 12:19:10;;;;;;;60.15;38.35;;;;;;;;;;5087275;28;20035;-67
2022/04/20 12:21:37;;;;;;;32.90;22.05;;;;;;;;;;5087599;28;20024;-72
2022/04/20 12:24:02;;;;;;;10.20;7.35;;;;;;;;;;5086787;28;20039;-71
2022/04/20 12:26:28;;;;;;;17.75;13.30;;;;;;;;;;5087376;28;20024;-75
2022/04/20 12:29:06;;;;;;;26.80;20.60;;;;;;;;;;5087694;28;20036;-70
2022/04/20 12:31:33;;;;;;;17.25;12.05;;;;;;;;;;5086146;28;20030;-65
2022/04/20 12:34:06;;;;;;;19.92;14.82;;;;;;;;;;5087540;28;20092;-76
2022/04/20 12:36:31;;;;;;;21.23;18.35;;;;;;;;;;5087930;28;20454;-71
2022/04/20 12:38:57;;;;;;;14.48;11.25;;;;;;;;;;5088305;28;20093;-69
2022/04/20 12:41:35;;;;;;;17.27;11.85;;;;;;;;;;5094905;28;20360;-67
2022/04/20 12:44:00;;;;;;;18.23;13.68;;;;;;;;;;5096939;28;20103;-68
2022/04/20 12:46:33;;;;;;;15.52;12.25;;;;;;;;;;5098091;28;20130;-67
2022/04/20 12:48:59;;;;;;;12.63;11.35;;;;;;;;;;5090011;28;20028;-69
2022/04/20 12:51:24;;;;;;;23.33;15.68;;;;;;;;;;5041361;28;20086;-69
2022/04/20 12:53:50;;;;;;;5.68;4.95;;;;;;;;;;5035184;28;20378;-73
2022/04/20 13:04:28;;;;;;;17.60;14.50;;;;;;;;;;5071446;28;20112;-72
2022/04/20 13:06:53;;;;;;;17.13;10.60;;;;;;;;;;5070828;28;20451;-69
2022/04/20 13:09:19;;;;;;;13.45;10.85;;;;;;;;;;5073954;28;20020;-70
2022/04/20 13:11:45;;;;;;;15.48;12.90;;;;;;;;;;5067774;28;20032;-68
2022/04/20 13:14:11;;;;;;;15.93;12.10;;;;;;;;;;5067311;28;20028;-70
2022/04/20 13:16:36;;;;;;;16.60;14.75;;;;;;;;;;5068376;28;20043;-68
2022/04/20 13:19:02;;;;;;;11.32;9.63;;;;;;;;;;5068310;28;20089;-69
2022/04/20 13:21:27;;;;;;;17.38;12.55;;;;;;;;;;5068290;28;20036;-70
2022/04/20 13:23:54;;;;;;;17.95;12.40;;;;;;;;;;5067665;28;20983;-70
2022/04/20 13:29:04;;;;;;;10.73;9.48;;;;;;;;;;5065429;28;20085;-71
2022/04/20 13:31:30;;;;;;;26.90;20.63;;;;;;;;;;5069246;28;20024;-71
2022/04/20 13:33:56;;;;;;;45.70;24.67;;;;;;;;;;5081468;28;20056;-71
2022/04/20 13:36:21;;;;;;;23.48;13.70;;;;;;;;;;5080772;28;20051;-72
2022/04/20 13:38:46;;;;;;;19.17;14.18;;;;;;;;;;5079830;28;20386;-72
2022/04/20 13:41:12;;;;;;;9.70;7.35;;;;;;;;;;5080757;28;20032;-71
2022/04/20 13:43:37;;;;;;;55.83;23.23;;;;;;;;;;5079603;28;20024;-72
2022/04/20 13:46:03;;;;;;;27.73;13.00;;;;;;;;;;5067842;28;20032;-74
2022/04/20 13:48:28;;;;;;;63.92;31.92;;;;;;;;;;5076532;28;20027;-72
2022/04/20 13:50:54;;;;;;;44.55;22.13;;;;;;;;;;5068329;28;20458;-73
2022/04/20 13:53:19;;;;;;;47.08;24.33;;;;;;;;;;5051530;28;20042;-71
2022/04/20 13:55:45;;;;;;;96.38;48.47;;;;;;;;;;5069512;28;20103;-72
2022/04/20 13:58:10;;;;;;;70.28;36.20;;;;;;;;;;5068642;28;20036;-75
2022/04/20 14:00:39;;;;;;;118.55;53.17;;;;;;;;;;5068854;28;20036;-72
2022/04/20 14:03:05;;;;;;;116.53;50.00;;;;;;;;;;5069540;28;20103;-75
2022/04/20 14:05:30;;;;;;;110.55;50.30;;;;;;;;;;5067801;28;20171;-74
2022/04/20 14:07:55;;;;;;;74.55;39.33;;;;;;;;;;5068294;28;20106;-73
2022/04/20 14:10:21;;;;;;;50.63;31.73;;;;;;;;;;5067390;28;20024;-72
2022/04/20 14:12:46;;;;;;;29.52;16.13;;;;;;;;;;5070756;28;20597;-73
2022/04/20 14:15:14;;;;;;;49.30;28.63;;;;;;;;;;5073779;28;20119;-71
2022/04/20 14:17:42;;;;;;;74.20;42.83;;;;;;;;;;5075570;28;20040;-77
2022/04/20 14:20:09;;;;;;;34.97;23.38;;;;;;;;;;5049493;28;20088;-74
2022/04/20 14:22:34;;;;;;;93.78;71.63;;;;;;;;;;5067622;28;20043;-71
2022/04/20 14:33:13;;;;;;;108.85;66.28;;;;;;;;;;5033227;28;20098;-72
2022/04/20 14:35:38;;;;;;;59.65;35.85;;;;;;;;;;5070201;28;20024;-67
2022/04/20 14:38:04;;;;;;;58.72;38.60;;;;;;;;;;5067798;28;20496;-66
2022/04/20 14:40:29;;;;;;;54.35;38.30;;;;;;;;;;5065288;28;20024;-67
2022/04/20 14:42:55;;;;;;;41.80;27.25;;;;;;;;;;5066333;28;20024;-68
2022/04/20 14:45:23;;;;;;;25.92;19.55;;;;;;;;;;5066410;28;20468;-69
2022/04/20 14:47:48;;;;;;;53.13;32.28;;;;;;;;;;5066179;28;20059;-69
2022/04/20 14:50:13;;;;;;;50.97;31.25;;;;;;;;;;5066616;28;20016;-68
2022/04/20 14:52:39;;;;;;;59.50;38.17;;;;;;;;;;5071239;28;20067;-68
2022/04/20 14:55:04;;;;;;;30.08;18.95;;;;;;;;;;5078434;28;20024;-69
2022/04/20 14:57:30;;;;;;;52.00;33.63;;;;;;;;;;5070104;28;20043;-68
2022/04/20 14:59:55;;;;;;;45.25;29.67;;;;;;;;;;5064482;28;20450;-71
2022/04/20 15:02:20;;;;;;;45.53;28.00;;;;;;;;;;5064367;28;20498;-69
2022/04/20 15:04:46;;;;;;;45.60;28.27;;;;;;;;;;5063486;28;20109;-70